首页
METAR-TAF:

METAR-TAF

机场 :

Meridian Regional Airport (Key Field)

子午线, 密西西比州, 美国

纬度: 32-20-17N, 经度: 088-44-52W, 海拔: 90米

当前天气观测

该预报发布于1小时和7分钟前的03:58 UTC
静风
温度 -1°C
湿度 64%
气压 1031 hPa
能見度: 16.1公里
天空无云

METAR: KMEI 220358Z 00000KT 10SM CLR M01/M07 A3045 RMK AO2 SLP315 T10061072 $

时间: 23:05 (05:05 UTC)

预报

该预报发布于5小时和45分钟前的23:20 UTC
预报有效从22日的 00点(UTC)到 22日的 24点(UTC)
风速4节,风向
能見度: 10公里
多云层高于25000英尺

TAF: KMEI 212320Z 2200/2224 10004KT P6SM BKN250

超过4000个机场的气象观测和天气预报(METAR&TAF报告)。

可查询的气象台以黄色和红色小点在地图上表示。

将鼠标移到小点上方,可查看气象台名称。

然后点击查看天气观测和预报。

如需切换地图:点击带黑十字的绿色按钮放大地图;点击带横线的绿色按钮缩小地图;或者点击绿色箭头查看邻近地区的地图。


METAR-TAF: